sensor_id;sensor_type;location;lat;lon;timestamp;temperature;humidity
14723;DHT22;7452;55.594;12.986;2022-12-24T00:01:28;0.50;99.90
14723;DHT22;7452;55.594;12.986;2022-12-24T00:04:02;0.50;99.90
14723;DHT22;7452;55.594;12.986;2022-12-24T00:06:32;0.50;99.90
14723;DHT22;7452;55.594;12.986;2022-12-24T00:09:01;0.50;99.90
14723;DHT22;7452;55.594;12.986;2022-12-24T00:11:30;0.50;99.90
14723;DHT22;7452;55.594;12.986;2022-12-24T00:13:59;0.40;99.90
14723;DHT22;7452;55.594;12.986;2022-12-24T00:16:27;0.40;99.90
14723;DHT22;7452;55.594;12.986;2022-12-24T00:18:55;0.40;99.90
14723;DHT22;7452;55.594;12.986;2022-12-24T00:21:23;0.30;99.90
14723;DHT22;7452;55.594;12.986;2022-12-24T00:23:51;0.30;99.90
14723;DHT22;7452;55.594;12.986;2022-12-24T00:26:19;0.30;99.90
14723;DHT22;7452;55.594;12.986;2022-12-24T00:28:51;0.30;99.90
14723;DHT22;7452;55.594;12.986;2022-12-24T00:31:20;0.30;99.90
14723;DHT22;7452;55.594;12.986;2022-12-24T00:33:51;0.30;99.90
14723;DHT22;7452;55.594;12.986;2022-12-24T00:36:19;0.20;99.90
14723;DHT22;7452;55.594;12.986;2022-12-24T00:38:52;0.20;99.90
14723;DHT22;7452;55.594;12.986;2022-12-24T00:41:25;0.20;99.90
14723;DHT22;7452;55.594;12.986;2022-12-24T00:44:12;0.20;99.90
14723;DHT22;7452;55.594;12.986;2022-12-24T00:46:43;0.20;99.90
14723;DHT22;7452;55.594;12.986;2022-12-24T00:49:19;0.20;99.90
14723;DHT22;7452;55.594;12.986;2022-12-24T00:51:48;0.30;99.90
14723;DHT22;7452;55.594;12.986;2022-12-24T00:54:17;0.20;99.90
14723;DHT22;7452;55.594;12.986;2022-12-24T00:56:45;0.20;99.90
14723;DHT22;7452;55.594;12.986;2022-12-24T00:59:16;0.10;99.90
14723;DHT22;7452;55.594;12.986;2022-12-24T01:01:44;0.10;99.90
14723;DHT22;7452;55.594;12.986;2022-12-24T01:04:15;0.00;99.90
14723;DHT22;7452;55.594;12.986;2022-12-24T01:07:01;0.00;99.90
14723;DHT22;7452;55.594;12.986;2022-12-24T01:09:29;0.00;99.90
14723;DHT22;7452;55.594;12.986;2022-12-24T01:11:59;0.10;99.90
14723;DHT22;7452;55.594;12.986;2022-12-24T01:14:28;0.10;99.90
14723;DHT22;7452;55.594;12.986;2022-12-24T01:16:56;0.20;99.90
14723;DHT22;7452;55.594;12.986;2022-12-24T01:19:24;0.20;99.90
14723;DHT22;7452;55.594;12.986;2022-12-24T01:22:02;0.20;99.90
14723;DHT22;7452;55.594;12.986;2022-12-24T01:24:35;0.20;99.90
14723;DHT22;7452;55.594;12.986;2022-12-24T01:27:02;0.20;99.90
14723;DHT22;7452;55.594;12.986;2022-12-24T01:29:34;0.20;99.90
14723;DHT22;7452;55.594;12.986;2022-12-24T01:32:04;0.20;99.90
14723;DHT22;7452;55.594;12.986;2022-12-24T01:34:31;0.10;99.90
14723;DHT22;7452;55.594;12.986;2022-12-24T01:37:01;0.10;99.90
14723;DHT22;7452;55.594;12.986;2022-12-24T01:39:31;0.00;99.90
14723;DHT22;7452;55.594;12.986;2022-12-24T01:42:01;0.00;99.90
14723;DHT22;7452;55.594;12.986;2022-12-24T01:44:52;-0.10;99.90
14723;DHT22;7452;55.594;12.986;2022-12-24T01:47:27;-0.10;99.90
14723;DHT22;7452;55.594;12.986;2022-12-24T01:49:57;-0.20;99.90
14723;DHT22;7452;55.594;12.986;2022-12-24T01:52:29;-0.20;99.90
14723;DHT22;7452;55.594;12.986;2022-12-24T01:54:59;-0.20;99.90
14723;DHT22;7452;55.594;12.986;2022-12-24T01:57:31;-0.20;99.90
14723;DHT22;7452;55.594;12.986;2022-12-24T02:00:09;-0.30;99.90
14723;DHT22;7452;55.594;12.986;2022-12-24T02:02:42;-0.30;99.90
14723;DHT22;7452;55.594;12.986;2022-12-24T02:05:18;-0.30;99.90
14723;DHT22;7452;55.594;12.986;2022-12-24T02:07:48;-0.30;99.90
14723;DHT22;7452;55.594;12.986;2022-12-24T02:10:17;-0.30;99.90
14723;DHT22;7452;55.594;12.986;2022-12-24T02:12:46;-0.30;99.90
14723;DHT22;7452;55.594;12.986;2022-12-24T02:15:24;-0.40;99.90
14723;DHT22;7452;55.594;12.986;2022-12-24T02:18:02;-0.40;99.90
14723;DHT22;7452;55.594;12.986;2022-12-24T02:21:13;-0.50;99.90
14723;DHT22;7452;55.594;12.986;2022-12-24T02:24:15;-0.40;99.90
14723;DHT22;7452;55.594;12.986;2022-12-24T02:27:11;-0.40;99.90
14723;DHT22;7452;55.594;12.986;2022-12-24T02:29:59;-0.30;99.90
14723;DHT22;7452;55.594;12.986;2022-12-24T02:32:35;-0.40;99.90
14723;DHT22;7452;55.594;12.986;2022-12-24T02:35:10;-0.50;99.90
14723;DHT22;7452;55.594;12.986;2022-12-24T02:37:42;-0.50;99.90
14723;DHT22;7452;55.594;12.986;2022-12-24T02:40:19;-0.50;99.90
14723;DHT22;7452;55.594;12.986;2022-12-24T02:42:52;-0.50;99.90
14723;DHT22;7452;55.594;12.986;2022-12-24T02:45:30;-0.50;99.90
14723;DHT22;7452;55.594;12.986;2022-12-24T02:47:58;-0.50;99.90
14723;DHT22;7452;55.594;12.986;2022-12-24T02:50:34;-0.50;99.90
14723;DHT22;7452;55.594;12.986;2022-12-24T02:53:08;-0.50;99.90
14723;DHT22;7452;55.594;12.986;2022-12-24T02:55:42;-0.60;99.90
14723;DHT22;7452;55.594;12.986;2022-12-24T02:58:24;-0.60;99.90
14723;DHT22;7452;55.594;12.986;2022-12-24T03:01:04;-0.60;99.90
14723;DHT22;7452;55.594;12.986;2022-12-24T03:03:57;-0.60;99.90
14723;DHT22;7452;55.594;12.986;2022-12-24T03:06:34;-0.60;99.90
14723;DHT22;7452;55.594;12.986;2022-12-24T03:09:50;-0.60;99.90
14723;DHT22;7452;55.594;12.986;2022-12-24T03:12:27;-0.60;99.90
14723;DHT22;7452;55.594;12.986;2022-12-24T03:15:14;-0.60;99.90
14723;DHT22;7452;55.594;12.986;2022-12-24T03:17:51;-0.60;99.90
14723;DHT22;7452;55.594;12.986;2022-12-24T03:20:24;-0.60;99.90
14723;DHT22;7452;55.594;12.986;2022-12-24T03:22:53;-0.60;99.90
14723;DHT22;7452;55.594;12.986;2022-12-24T03:25:23;-0.60;99.90
14723;DHT22;7452;55.594;12.986;2022-12-24T03:27:51;-0.60;99.90
14723;DHT22;7452;55.594;12.986;2022-12-24T03:30:21;-0.70;99.90
14723;DHT22;7452;55.594;12.986;2022-12-24T03:33:03;-0.70;99.90
14723;DHT22;7452;55.594;12.986;2022-12-24T03:35:31;-0.60;99.90
14723;DHT22;7452;55.594;12.986;2022-12-24T03:38:01;-0.70;99.90
14723;DHT22;7452;55.594;12.986;2022-12-24T03:40:30;-0.70;99.90
14723;DHT22;7452;55.594;12.986;2022-12-24T03:43:01;-0.70;99.90
14723;DHT22;7452;55.594;12.986;2022-12-24T03:45:30;-0.70;99.90
14723;DHT22;7452;55.594;12.986;2022-12-24T03:48:08;-0.70;99.90
14723;DHT22;7452;55.594;12.986;2022-12-24T03:50:36;-0.60;99.90
14723;DHT22;7452;55.594;12.986;2022-12-24T03:53:08;-0.70;99.90
14723;DHT22;7452;55.594;12.986;2022-12-24T03:55:38;-0.70;99.90
14723;DHT22;7452;55.594;12.986;2022-12-24T03:58:06;-0.70;99.90
14723;DHT22;7452;55.594;12.986;2022-12-24T04:00:36;-0.70;99.90
14723;DHT22;7452;55.594;12.986;2022-12-24T04:03:08;-0.70;99.90
14723;DHT22;7452;55.594;12.986;2022-12-24T04:05:36;-0.70;99.90
14723;DHT22;7452;55.594;12.986;2022-12-24T04:08:05;-0.70;99.90
14723;DHT22;7452;55.594;12.986;2022-12-24T04:10:36;-0.80;99.90
14723;DHT22;7452;55.594;12.986;2022-12-24T04:13:11;-0.80;99.90
14723;DHT22;7452;55.594;12.986;2022-12-24T04:15:41;-0.70;99.90
14723;DHT22;7452;55.594;12.986;2022-12-24T04:18:13;-0.70;99.90
14723;DHT22;7452;55.594;12.986;2022-12-24T04:20:45;-0.70;99.90
14723;DHT22;7452;55.594;12.986;2022-12-24T04:23:13;-0.80;99.90
14723;DHT22;7452;55.594;12.986;2022-12-24T04:25:42;-0.80;99.90
14723;DHT22;7452;55.594;12.986;2022-12-24T04:28:12;-0.80;99.90
14723;DHT22;7452;55.594;12.986;2022-12-24T04:30:46;-0.80;99.90
14723;DHT22;7452;55.594;12.986;2022-12-24T04:33:16;-0.80;99.90
14723;DHT22;7452;55.594;12.986;2022-12-24T04:35:48;-0.80;99.90
14723;DHT22;7452;55.594;12.986;2022-12-24T04:38:15;-0.80;99.90
14723;DHT22;7452;55.594;12.986;2022-12-24T04:40:47;-0.80;99.90
14723;DHT22;7452;55.594;12.986;2022-12-24T04:43:16;-0.80;99.90
14723;DHT22;7452;55.594;12.986;2022-12-24T04:45:47;-0.80;99.90
14723;DHT22;7452;55.594;12.986;2022-12-24T04:48:16;-0.80;99.90
14723;DHT22;7452;55.594;12.986;2022-12-24T04:50:50;-0.80;99.90
14723;DHT22;7452;55.594;12.986;2022-12-24T04:53:19;-0.80;99.90
14723;DHT22;7452;55.594;12.986;2022-12-24T04:55:48;-0.80;99.90
14723;DHT22;7452;55.594;12.986;2022-12-24T04:58:23;-0.80;99.90
14723;DHT22;7452;55.594;12.986;2022-12-24T05:01:02;-0.80;99.90
14723;DHT22;7452;55.594;12.986;2022-12-24T05:03:32;-0.80;99.90
14723;DHT22;7452;55.594;12.986;2022-12-24T05:06:04;-0.90;99.90
14723;DHT22;7452;55.594;12.986;2022-12-24T05:08:41;-0.90;99.90
14723;DHT22;7452;55.594;12.986;2022-12-24T05:11:11;-0.90;99.90
14723;DHT22;7452;55.594;12.986;2022-12-24T05:13:46;-0.80;99.90
14723;DHT22;7452;55.594;12.986;2022-12-24T05:16:27;-0.90;99.90
14723;DHT22;7452;55.594;12.986;2022-12-24T05:19:10;-0.80;99.90
14723;DHT22;7452;55.594;12.986;2022-12-24T05:21:38;-0.70;99.90
14723;DHT22;7452;55.594;12.986;2022-12-24T05:24:31;-0.70;99.90
14723;DHT22;7452;55.594;12.986;2022-12-24T05:27:22;-0.70;99.90
14723;DHT22;7452;55.594;12.986;2022-12-24T05:29:53;-0.60;99.90
14723;DHT22;7452;55.594;12.986;2022-12-24T05:32:27;-0.60;99.90
14723;DHT22;7452;55.594;12.986;2022-12-24T05:34:58;-0.60;99.90
14723;DHT22;7452;55.594;12.986;2022-12-24T05:37:39;-0.50;99.90
14723;DHT22;7452;55.594;12.986;2022-12-24T05:40:08;-0.50;99.90
14723;DHT22;7452;55.594;12.986;2022-12-24T05:42:39;-0.50;99.90
14723;DHT22;7452;55.594;12.986;2022-12-24T05:45:14;-0.50;99.90
14723;DHT22;7452;55.594;12.986;2022-12-24T05:47:43;-0.50;99.90
14723;DHT22;7452;55.594;12.986;2022-12-24T05:50:12;-0.50;99.90
14723;DHT22;7452;55.594;12.986;2022-12-24T05:52:43;-0.50;99.90
14723;DHT22;7452;55.594;12.986;2022-12-24T05:55:12;-0.50;99.90
14723;DHT22;7452;55.594;12.986;2022-12-24T05:57:40;-0.50;99.90
14723;DHT22;7452;55.594;12.986;2022-12-24T06:00:15;-0.40;99.90
14723;DHT22;7452;55.594;12.986;2022-12-24T06:02:44;-0.40;99.90
14723;DHT22;7452;55.594;12.986;2022-12-24T06:05:17;-0.20;99.90
14723;DHT22;7452;55.594;12.986;2022-12-24T06:07:44;-0.20;99.90
14723;DHT22;7452;55.594;12.986;2022-12-24T06:10:14;-0.20;99.90
14723;DHT22;7452;55.594;12.986;2022-12-24T06:12:45;-0.20;99.90
14723;DHT22;7452;55.594;12.986;2022-12-24T06:15:15;-0.20;99.90
14723;DHT22;7452;55.594;12.986;2022-12-24T06:17:46;-0.20;99.90
14723;DHT22;7452;55.594;12.986;2022-12-24T06:20:14;-0.20;99.90
14723;DHT22;7452;55.594;12.986;2022-12-24T06:22:52;-0.20;99.90
14723;DHT22;7452;55.594;12.986;2022-12-24T06:25:20;-0.30;99.90
14723;DHT22;7452;55.594;12.986;2022-12-24T06:27:55;-0.20;99.90
14723;DHT22;7452;55.594;12.986;2022-12-24T06:30:32;-0.20;99.90
14723;DHT22;7452;55.594;12.986;2022-12-24T06:33:01;-0.20;99.90
14723;DHT22;7452;55.594;12.986;2022-12-24T06:35:30;-0.20;99.90
14723;DHT22;7452;55.594;12.986;2022-12-24T06:38:02;-0.20;99.90
14723;DHT22;7452;55.594;12.986;2022-12-24T06:40:37;-0.20;99.90
14723;DHT22;7452;55.594;12.986;2022-12-24T06:43:13;-0.10;99.90
14723;DHT22;7452;55.594;12.986;2022-12-24T06:45:44;-0.10;99.90
14723;DHT22;7452;55.594;12.986;2022-12-24T06:48:13;-0.10;99.90
14723;DHT22;7452;55.594;12.986;2022-12-24T06:50:43;0.00;99.90
14723;DHT22;7452;55.594;12.986;2022-12-24T06:53:23;0.00;99.90
14723;DHT22;7452;55.594;12.986;2022-12-24T06:55:51;0.00;99.90
14723;DHT22;7452;55.594;12.986;2022-12-24T06:58:22;0.00;99.90
14723;DHT22;7452;55.594;12.986;2022-12-24T07:00:50;0.10;99.90
14723;DHT22;7452;55.594;12.986;2022-12-24T07:03:19;0.10;99.90
14723;DHT22;7452;55.594;12.986;2022-12-24T07:05:49;0.00;99.90
14723;DHT22;7452;55.594;12.986;2022-12-24T07:08:21;0.10;99.90
14723;DHT22;7452;55.594;12.986;2022-12-24T07:10:49;0.10;99.90
14723;DHT22;7452;55.594;12.986;2022-12-24T07:13:21;0.10;99.90
14723;DHT22;7452;55.594;12.986;2022-12-24T07:15:56;0.10;99.90
14723;DHT22;7452;55.594;12.986;2022-12-24T07:18:28;0.10;99.90
14723;DHT22;7452;55.594;12.986;2022-12-24T07:20:58;0.10;99.90
14723;DHT22;7452;55.594;12.986;2022-12-24T07:23:34;0.10;99.90
14723;DHT22;7452;55.594;12.986;2022-12-24T07:26:05;0.10;99.90
14723;DHT22;7452;55.594;12.986;2022-12-24T07:28:36;0.00;99.90
14723;DHT22;7452;55.594;12.986;2022-12-24T07:31:04;0.00;99.90
14723;DHT22;7452;55.594;12.986;2022-12-24T07:33:31;0.00;99.90
14723;DHT22;7452;55.594;12.986;2022-12-24T07:36:00;0.10;99.90
14723;DHT22;7452;55.594;12.986;2022-12-24T07:38:29;0.10;99.90
14723;DHT22;7452;55.594;12.986;2022-12-24T07:41:01;0.00;99.90
14723;DHT22;7452;55.594;12.986;2022-12-24T07:43:28;0.10;99.90
14723;DHT22;7452;55.594;12.986;2022-12-24T07:46:05;0.10;99.90
14723;DHT22;7452;55.594;12.986;2022-12-24T07:48:38;0.20;99.90
14723;DHT22;7452;55.594;12.986;2022-12-24T07:51:06;0.20;99.90
14723;DHT22;7452;55.594;12.986;2022-12-24T07:53:41;0.20;99.90
14723;DHT22;7452;55.594;12.986;2022-12-24T07:56:18;0.10;99.90
14723;DHT22;7452;55.594;12.986;2022-12-24T07:58:49;0.10;99.90
14723;DHT22;7452;55.594;12.986;2022-12-24T08:01:18;0.10;99.90
14723;DHT22;7452;55.594;12.986;2022-12-24T08:03:52;0.20;99.90
14723;DHT22;7452;55.594;12.986;2022-12-24T08:06:19;0.10;99.90
14723;DHT22;7452;55.594;12.986;2022-12-24T08:08:56;0.10;99.90
14723;DHT22;7452;55.594;12.986;2022-12-24T08:11:29;0.10;99.90
14723;DHT22;7452;55.594;12.986;2022-12-24T08:13:56;0.10;99.90
14723;DHT22;7452;55.594;12.986;2022-12-24T08:16:25;0.20;99.90
14723;DHT22;7452;55.594;12.986;2022-12-24T08:18:53;0.20;99.90
14723;DHT22;7452;55.594;12.986;2022-12-24T08:21:21;0.20;99.90
14723;DHT22;7452;55.594;12.986;2022-12-24T08:23:52;0.20;99.90
14723;DHT22;7452;55.594;12.986;2022-12-24T08:26:20;0.20;99.90
14723;DHT22;7452;55.594;12.986;2022-12-24T08:28:49;0.20;99.90
14723;DHT22;7452;55.594;12.986;2022-12-24T08:31:18;0.20;99.90
14723;DHT22;7452;55.594;12.986;2022-12-24T08:33:48;0.40;99.90
14723;DHT22;7452;55.594;12.986;2022-12-24T08:36:17;0.30;99.90
14723;DHT22;7452;55.594;12.986;2022-12-24T08:38:45;0.30;99.90
14723;DHT22;7452;55.594;12.986;2022-12-24T08:41:14;0.30;99.90
14723;DHT22;7452;55.594;12.986;2022-12-24T08:43:42;0.40;99.90
14723;DHT22;7452;55.594;12.986;2022-12-24T08:46:28;0.50;99.90
14723;DHT22;7452;55.594;12.986;2022-12-24T08:48:57;0.60;99.90
14723;DHT22;7452;55.594;12.986;2022-12-24T08:51:27;0.70;99.90
14723;DHT22;7452;55.594;12.986;2022-12-24T08:53:59;0.80;99.90
14723;DHT22;7452;55.594;12.986;2022-12-24T08:56:29;0.70;99.90
14723;DHT22;7452;55.594;12.986;2022-12-24T08:59:06;0.80;99.90
14723;DHT22;7452;55.594;12.986;2022-12-24T09:01:38;0.80;99.90
14723;DHT22;7452;55.594;12.986;2022-12-24T09:04:11;0.80;99.90
14723;DHT22;7452;55.594;12.986;2022-12-24T09:06:45;0.90;99.90
14723;DHT22;7452;55.594;12.986;2022-12-24T09:09:18;0.80;99.90
14723;DHT22;7452;55.594;12.986;2022-12-24T09:11:52;1.00;99.90
14723;DHT22;7452;55.594;12.986;2022-12-24T09:14:19;0.80;99.90
14723;DHT22;7452;55.594;12.986;2022-12-24T09:16:55;0.90;99.90
14723;DHT22;7452;55.594;12.986;2022-12-24T09:19:25;0.90;99.90
14723;DHT22;7452;55.594;12.986;2022-12-24T09:21:55;1.00;99.90
14723;DHT22;7452;55.594;12.986;2022-12-24T09:24:23;1.10;99.90
14723;DHT22;7452;55.594;12.986;2022-12-24T09:26:52;1.10;99.90
14723;DHT22;7452;55.594;12.986;2022-12-24T09:29:27;1.20;99.90
14723;DHT22;7452;55.594;12.986;2022-12-24T09:31:58;1.20;99.90
14723;DHT22;7452;55.594;12.986;2022-12-24T09:34:30;1.30;99.90
14723;DHT22;7452;55.594;12.986;2022-12-24T09:37:00;1.30;99.90
14723;DHT22;7452;55.594;12.986;2022-12-24T09:39:28;1.30;99.90
14723;DHT22;7452;55.594;12.986;2022-12-24T09:42:06;1.30;99.90
14723;DHT22;7452;55.594;12.986;2022-12-24T09:44:42;1.40;99.90
14723;DHT22;7452;55.594;12.986;2022-12-24T09:47:28;1.50;99.90
14723;DHT22;7452;55.594;12.986;2022-12-24T09:50:20;1.50;99.90
14723;DHT22;7452;55.594;12.986;2022-12-24T09:52:51;1.60;99.90
14723;DHT22;7452;55.594;12.986;2022-12-24T09:55:33;1.60;99.90
14723;DHT22;7452;55.594;12.986;2022-12-24T09:58:09;1.70;99.90
14723;DHT22;7452;55.594;12.986;2022-12-24T10:00:43;1.60;99.90
14723;DHT22;7452;55.594;12.986;2022-12-24T10:03:16;1.80;99.90
14723;DHT22;7452;55.594;12.986;2022-12-24T10:06:00;1.70;99.90
14723;DHT22;7452;55.594;12.986;2022-12-24T10:08:38;1.70;99.90
14723;DHT22;7452;55.594;12.986;2022-12-24T10:11:26;1.80;99.90
14723;DHT22;7452;55.594;12.986;2022-12-24T10:14:19;1.90;99.90
14723;DHT22;7452;55.594;12.986;2022-12-24T10:16:55;1.90;99.90
14723;DHT22;7452;55.594;12.986;2022-12-24T10:19:42;2.00;99.90
14723;DHT22;7452;55.594;12.986;2022-12-24T10:22:34;1.90;99.90
14723;DHT22;7452;55.594;12.986;2022-12-24T10:25:08;2.00;99.90
14723;DHT22;7452;55.594;12.986;2022-12-24T10:27:54;2.00;99.90
14723;DHT22;7452;55.594;12.986;2022-12-24T10:30:37;2.00;99.90
14723;DHT22;7452;55.594;12.986;2022-12-24T10:33:13;2.00;99.90
14723;DHT22;7452;55.594;12.986;2022-12-24T10:36:01;2.10;99.90
14723;DHT22;7452;55.594;12.986;2022-12-24T10:38:38;2.10;99.90
14723;DHT22;7452;55.594;12.986;2022-12-24T10:41:07;2.10;99.90
14723;DHT22;7452;55.594;12.986;2022-12-24T10:43:43;2.10;99.90
14723;DHT22;7452;55.594;12.986;2022-12-24T10:46:20;2.20;99.90
14723;DHT22;7452;55.594;12.986;2022-12-24T10:48:55;2.10;99.90
14723;DHT22;7452;55.594;12.986;2022-12-24T10:51:39;2.20;99.90
14723;DHT22;7452;55.594;12.986;2022-12-24T10:54:12;2.20;99.90
14723;DHT22;7452;55.594;12.986;2022-12-24T10:56:42;2.20;99.90
14723;DHT22;7452;55.594;12.986;2022-12-24T10:59:25;2.20;99.90
14723;DHT22;7452;55.594;12.986;2022-12-24T11:01:59;2.20;99.90
14723;DHT22;7452;55.594;12.986;2022-12-24T11:04:28;2.20;99.90
14723;DHT22;7452;55.594;12.986;2022-12-24T11:07:01;2.30;99.90
14723;DHT22;7452;55.594;12.986;2022-12-24T11:09:30;2.30;99.90
14723;DHT22;7452;55.594;12.986;2022-12-24T11:12:17;2.40;99.90
14723;DHT22;7452;55.594;12.986;2022-12-24T11:14:46;2.50;99.90
14723;DHT22;7452;55.594;12.986;2022-12-24T11:17:19;2.40;99.90
14723;DHT22;7452;55.594;12.986;2022-12-24T11:19:49;2.50;99.90
14723;DHT22;7452;55.594;12.986;2022-12-24T11:22:22;2.50;99.90
14723;DHT22;7452;55.594;12.986;2022-12-24T11:25:02;2.50;99.90
14723;DHT22;7452;55.594;12.986;2022-12-24T11:27:39;2.60;99.90
14723;DHT22;7452;55.594;12.986;2022-12-24T11:30:30;2.60;99.90
14723;DHT22;7452;55.594;12.986;2022-12-24T11:33:28;2.50;99.90
14723;DHT22;7452;55.594;12.986;2022-12-24T11:36:00;2.60;99.90
14723;DHT22;7452;55.594;12.986;2022-12-24T11:38:38;2.60;99.90
14723;DHT22;7452;55.594;12.986;2022-12-24T11:41:13;2.70;99.90
14723;DHT22;7452;55.594;12.986;2022-12-24T11:43:43;2.60;99.90
14723;DHT22;7452;55.594;12.986;2022-12-24T11:46:15;2.60;99.90
14723;DHT22;7452;55.594;12.986;2022-12-24T11:48:46;2.70;99.90
14723;DHT22;7452;55.594;12.986;2022-12-24T11:51:28;2.60;99.90
14723;DHT22;7452;55.594;12.986;2022-12-24T11:54:16;2.60;99.90
14723;DHT22;7452;55.594;12.986;2022-12-24T11:56:48;2.60;99.90
14723;DHT22;7452;55.594;12.986;2022-12-24T11:59:27;2.60;99.90
14723;DHT22;7452;55.594;12.986;2022-12-24T12:01:59;2.70;99.90
14723;DHT22;7452;55.594;12.986;2022-12-24T12:04:32;2.70;99.90
14723;DHT22;7452;55.594;12.986;2022-12-24T12:07:02;2.70;99.90
14723;DHT22;7452;55.594;12.986;2022-12-24T12:09:59;2.70;99.90
14723;DHT22;7452;55.594;12.986;2022-12-24T12:12:31;2.70;99.90
14723;DHT22;7452;55.594;12.986;2022-12-24T12:15:03;2.80;99.90
14723;DHT22;7452;55.594;12.986;2022-12-24T12:17:39;2.80;99.90
14723;DHT22;7452;55.594;12.986;2022-12-24T12:20:12;2.80;99.90
14723;DHT22;7452;55.594;12.986;2022-12-24T12:22:49;2.90;99.90
14723;DHT22;7452;55.594;12.986;2022-12-24T12:25:36;2.90;99.90
14723;DHT22;7452;55.594;12.986;2022-12-24T12:28:10;2.90;99.90
14723;DHT22;7452;55.594;12.986;2022-12-24T12:30:44;3.00;99.90
14723;DHT22;7452;55.594;12.986;2022-12-24T12:33:21;3.10;99.90
14723;DHT22;7452;55.594;12.986;2022-12-24T12:35:56;3.00;99.90
14723;DHT22;7452;55.594;12.986;2022-12-24T12:38:37;3.00;99.90
14723;DHT22;7452;55.594;12.986;2022-12-24T12:41:29;3.00;99.90
14723;DHT22;7452;55.594;12.986;2022-12-24T12:47:24;3.10;99.90
14723;DHT22;7452;55.594;12.986;2022-12-24T12:50:11;3.10;99.90
14723;DHT22;7452;55.594;12.986;2022-12-24T12:52:51;3.10;99.90
14723;DHT22;7452;55.594;12.986;2022-12-24T12:55:35;3.20;99.90
14723;DHT22;7452;55.594;12.986;2022-12-24T12:58:13;3.20;99.90
14723;DHT22;7452;55.594;12.986;2022-12-24T13:00:45;3.20;99.90
14723;DHT22;7452;55.594;12.986;2022-12-24T13:03:44;3.20;99.90
14723;DHT22;7452;55.594;12.986;2022-12-24T13:06:37;3.20;99.90
14723;DHT22;7452;55.594;12.986;2022-12-24T13:09:31;3.20;99.90
14723;DHT22;7452;55.594;12.986;2022-12-24T13:12:25;3.20;99.90
14723;DHT22;7452;55.594;12.986;2022-12-24T13:18:32;3.20;99.90
14723;DHT22;7452;55.594;12.986;2022-12-24T13:21:03;3.20;99.90
14723;DHT22;7452;55.594;12.986;2022-12-24T13:23:31;3.20;99.90
14723;DHT22;7452;55.594;12.986;2022-12-24T13:26:09;3.20;99.90
14723;DHT22;7452;55.594;12.986;2022-12-24T13:28:42;3.20;99.90
14723;DHT22;7452;55.594;12.986;2022-12-24T13:31:28;3.20;99.90
14723;DHT22;7452;55.594;12.986;2022-12-24T13:34:05;3.20;99.90
14723;DHT22;7452;55.594;12.986;2022-12-24T13:37:15;3.20;99.90
14723;DHT22;7452;55.594;12.986;2022-12-24T13:40:21;3.10;99.90
14723;DHT22;7452;55.594;12.986;2022-12-24T13:43:10;3.10;99.90
14723;DHT22;7452;55.594;12.986;2022-12-24T13:45:44;3.10;99.90
14723;DHT22;7452;55.594;12.986;2022-12-24T13:48:28;3.00;99.90
14723;DHT22;7452;55.594;12.986;2022-12-24T13:50:58;3.00;99.90
14723;DHT22;7452;55.594;12.986;2022-12-24T13:53:30;3.00;99.90
14723;DHT22;7452;55.594;12.986;2022-12-24T13:56:05;2.90;99.90
14723;DHT22;7452;55.594;12.986;2022-12-24T13:58:34;2.80;99.90
14723;DHT22;7452;55.594;12.986;2022-12-24T14:01:09;2.80;99.90
14723;DHT22;7452;55.594;12.986;2022-12-24T14:03:44;2.70;99.90
14723;DHT22;7452;55.594;12.986;2022-12-24T14:06:27;2.60;99.90
14723;DHT22;7452;55.594;12.986;2022-12-24T14:09:08;2.60;99.90
14723;DHT22;7452;55.594;12.986;2022-12-24T14:12:13;2.60;99.90
14723;DHT22;7452;55.594;12.986;2022-12-24T14:14:43;2.40;99.90
14723;DHT22;7452;55.594;12.986;2022-12-24T14:17:21;2.30;99.90
14723;DHT22;7452;55.594;12.986;2022-12-24T14:19:57;2.30;99.90
14723;DHT22;7452;55.594;12.986;2022-12-24T14:22:29;2.30;99.90
14723;DHT22;7452;55.594;12.986;2022-12-24T14:25:00;2.10;99.90
14723;DHT22;7452;55.594;12.986;2022-12-24T14:27:37;2.10;99.90
14723;DHT22;7452;55.594;12.986;2022-12-24T14:30:14;2.10;99.90
14723;DHT22;7452;55.594;12.986;2022-12-24T14:32:45;2.10;99.90
14723;DHT22;7452;55.594;12.986;2022-12-24T14:35:18;1.90;99.90
14723;DHT22;7452;55.594;12.986;2022-12-24T14:37:48;1.90;99.90
14723;DHT22;7452;55.594;12.986;2022-12-24T14:40:21;1.80;99.90
14723;DHT22;7452;55.594;12.986;2022-12-24T14:43:08;1.80;99.90
14723;DHT22;7452;55.594;12.986;2022-12-24T14:45:44;1.80;99.90
14723;DHT22;7452;55.594;12.986;2022-12-24T14:48:18;1.70;99.90
14723;DHT22;7452;55.594;12.986;2022-12-24T14:51:01;1.70;99.90
14723;DHT22;7452;55.594;12.986;2022-12-24T14:53:44;1.60;99.90
14723;DHT22;7452;55.594;12.986;2022-12-24T14:56:24;1.60;99.90
14723;DHT22;7452;55.594;12.986;2022-12-24T14:58:57;1.60;99.90
14723;DHT22;7452;55.594;12.986;2022-12-24T15:01:32;1.50;99.90
14723;DHT22;7452;55.594;12.986;2022-12-24T15:04:03;1.60;99.90
14723;DHT22;7452;55.594;12.986;2022-12-24T15:06:35;1.50;99.90
14723;DHT22;7452;55.594;12.986;2022-12-24T15:09:12;1.50;99.90
14723;DHT22;7452;55.594;12.986;2022-12-24T15:11:43;1.50;99.90
14723;DHT22;7452;55.594;12.986;2022-12-24T15:14:15;1.50;99.90
14723;DHT22;7452;55.594;12.986;2022-12-24T15:16:52;1.40;99.90
14723;DHT22;7452;55.594;12.986;2022-12-24T15:19:23;1.40;99.90
14723;DHT22;7452;55.594;12.986;2022-12-24T15:22:09;1.50;99.90
14723;DHT22;7452;55.594;12.986;2022-12-24T15:24:44;1.50;99.90
14723;DHT22;7452;55.594;12.986;2022-12-24T15:27:14;1.50;99.90
14723;DHT22;7452;55.594;12.986;2022-12-24T15:29:45;1.50;99.90
14723;DHT22;7452;55.594;12.986;2022-12-24T15:32:19;1.50;99.90
14723;DHT22;7452;55.594;12.986;2022-12-24T15:34:49;1.50;99.90
14723;DHT22;7452;55.594;12.986;2022-12-24T15:37:22;1.50;99.90
14723;DHT22;7452;55.594;12.986;2022-12-24T15:40:02;1.50;99.90
14723;DHT22;7452;55.594;12.986;2022-12-24T15:42:40;1.50;99.90
14723;DHT22;7452;55.594;12.986;2022-12-24T15:45:17;1.50;99.90
14723;DHT22;7452;55.594;12.986;2022-12-24T15:47:54;1.50;99.90
14723;DHT22;7452;55.594;12.986;2022-12-24T15:50:26;1.60;99.90
14723;DHT22;7452;55.594;12.986;2022-12-24T15:53:01;1.60;99.90
14723;DHT22;7452;55.594;12.986;2022-12-24T15:55:33;1.60;99.90
14723;DHT22;7452;55.594;12.986;2022-12-24T15:58:13;1.60;99.90
14723;DHT22;7452;55.594;12.986;2022-12-24T16:01:00;1.60;99.90
14723;DHT22;7452;55.594;12.986;2022-12-24T16:03:28;1.60;99.90
14723;DHT22;7452;55.594;12.986;2022-12-24T16:06:00;1.70;99.90
14723;DHT22;7452;55.594;12.986;2022-12-24T16:08:33;1.70;99.90
14723;DHT22;7452;55.594;12.986;2022-12-24T16:11:22;1.70;99.90
14723;DHT22;7452;55.594;12.986;2022-12-24T16:14:11;1.70;99.90
14723;DHT22;7452;55.594;12.986;2022-12-24T16:16:45;1.70;99.90
14723;DHT22;7452;55.594;12.986;2022-12-24T16:19:26;1.70;99.90
14723;DHT22;7452;55.594;12.986;2022-12-24T16:21:57;1.80;99.90
14723;DHT22;7452;55.594;12.986;2022-12-24T16:24:52;1.80;99.90
14723;DHT22;7452;55.594;12.986;2022-12-24T16:27:22;1.80;99.90
14723;DHT22;7452;55.594;12.986;2022-12-24T16:29:51;1.90;99.90
14723;DHT22;7452;55.594;12.986;2022-12-24T16:32:29;1.90;99.90
14723;DHT22;7452;55.594;12.986;2022-12-24T16:34:58;1.90;99.90
14723;DHT22;7452;55.594;12.986;2022-12-24T16:37:29;1.90;99.90